Time;durP1;ratioP1;P1;durP2;ratioP2;P2;SDS_P1;SDS_P2;PMS_P1;PMS_P2;Temp;Humidity;BMP_temperature;BMP_pressure;BME280_temperature;BME280_humidity;BME280_pressure;Samples;Min_cycle;Max_cycle;Signal;HPM_P1;HPM_P2
2023/03/07 00:02:07;;;;;;;29.10;18.07;;;;;;;2.10;100.00;99641.50;4991318;28;20203;-67
2023/03/07 00:04:32;;;;;;;31.53;18.23;;;;;;;2.15;100.00;99639.13;4994806;28;20227;-68
2023/03/07 00:06:58;;;;;;;30.50;18.67;;;;;;;2.14;100.00;99634.88;4990243;28;20199;-67
2023/03/07 00:09:24;;;;;;;36.53;20.40;;;;;;;2.12;100.00;99626.41;4993032;28;20195;-67
2023/03/07 00:11:49;;;;;;;35.77;20.77;;;;;;;2.13;100.00;99615.50;4988269;28;20239;-66
2023/03/07 00:14:15;;;;;;;37.90;20.80;;;;;;;2.12;100.00;99609.56;4992433;28;20322;-68
2023/03/07 00:16:40;;;;;;;38.80;22.17;;;;;;;2.14;100.00;99602.94;4988609;28;20279;-67
2023/03/07 00:19:06;;;;;;;38.33;21.40;;;;;;;2.13;100.00;99596.16;4995063;28;20238;-67
2023/03/07 00:21:32;;;;;;;42.37;23.20;;;;;;;2.12;100.00;99598.63;4993589;28;20192;-66
2023/03/07 00:23:58;;;;;;;42.70;24.10;;;;;;;2.14;100.00;99589.44;4995723;28;20226;-67
2023/03/07 00:26:25;;;;;;;45.27;24.97;;;;;;;2.15;100.00;99576.03;4993186;28;20270;-68
2023/03/07 00:28:52;;;;;;;47.63;24.07;;;;;;;2.17;100.00;99581.97;4988830;28;20206;-68
2023/03/07 00:31:19;;;;;;;46.43;24.57;;;;;;;2.15;100.00;99569.28;4992258;28;20208;-65
2023/03/07 00:33:44;;;;;;;45.03;25.23;;;;;;;2.17;100.00;99564.31;4996006;28;20305;-68
2023/03/07 00:36:11;;;;;;;47.37;26.33;;;;;;;2.18;100.00;99564.34;4990734;28;20740;-69
2023/03/07 00:38:37;;;;;;;46.77;25.13;;;;;;;2.18;100.00;99554.25;4994028;28;20211;-67
2023/03/07 00:41:08;;;;;;;48.03;26.10;;;;;;;2.21;100.00;99561.06;4987227;28;20199;-67
2023/03/07 00:43:34;;;;;;;49.97;25.03;;;;;;;2.21;100.00;99540.88;4991335;28;20756;-67
2023/03/07 00:46:00;;;;;;;47.87;27.67;;;;;;;2.24;100.00;99546.00;4986111;28;20274;-68
2023/03/07 00:48:27;;;;;;;52.13;27.80;;;;;;;2.22;100.00;99533.34;4992224;28;20291;-68
2023/03/07 00:50:53;;;;;;;50.33;26.80;;;;;;;2.23;100.00;99519.03;4993924;28;20195;-67
2023/03/07 00:53:20;;;;;;;46.80;26.60;;;;;;;2.23;100.00;99519.03;4989808;28;20713;-67
2023/03/07 00:55:56;;;;;;;50.47;27.43;;;;;;;2.24;100.00;99509.00;4992894;28;20284;-67
2023/03/07 00:58:21;;;;;;;47.97;26.97;;;;;;;2.27;100.00;99503.19;5003453;28;20670;-68
2023/03/07 01:00:48;;;;;;;49.00;26.47;;;;;;;2.27;100.00;99501.53;4993970;28;20219;-68
2023/03/07 01:03:14;;;;;;;47.13;27.00;;;;;;;2.24;100.00;99486.28;4989898;28;20250;-66
2023/03/07 01:05:40;;;;;;;47.10;26.37;;;;;;;2.25;100.00;99485.47;4992400;28;20253;-68
2023/03/07 01:08:05;;;;;;;47.90;28.13;;;;;;;2.26;100.00;99481.28;4989307;28;20203;-68
2023/03/07 01:10:32;;;;;;;48.60;28.17;;;;;;;2.25;100.00;99472.00;4994427;28;20188;-68
2023/03/07 01:12:58;;;;;;;48.63;27.83;;;;;;;2.25;100.00;99472.84;4986563;28;20223;-67
2023/03/07 01:15:24;;;;;;;51.73;28.77;;;;;;;2.22;100.00;99471.91;4995382;28;20262;-68
2023/03/07 01:17:50;;;;;;;50.97;27.97;;;;;;;2.20;100.00;99454.16;4988462;28;20208;-67
2023/03/07 01:20:15;;;;;;;54.13;28.93;;;;;;;2.19;100.00;99457.50;4993199;28;20188;-69
2023/03/07 01:22:41;;;;;;;51.67;28.77;;;;;;;2.15;100.00;99448.13;4989669;28;20292;-68
2023/03/07 01:25:07;;;;;;;54.30;29.73;;;;;;;2.18;100.00;99445.72;4988189;28;20215;-69
2023/03/07 01:27:32;;;;;;;56.97;31.47;;;;;;;2.15;100.00;99439.72;4977532;28;20242;-68
2023/03/07 01:29:58;;;;;;;55.37;29.83;;;;;;;2.09;100.00;99427.78;4994857;28;20195;-67
2023/03/07 01:32:23;;;;;;;54.23;29.90;;;;;;;2.08;100.00;99420.16;4993023;28;20208;-68
2023/03/07 01:34:49;;;;;;;55.83;31.30;;;;;;;2.01;100.00;99414.06;4995574;28;20265;-69
2023/03/07 01:37:14;;;;;;;54.30;30.63;;;;;;;2.00;100.00;99411.47;4986342;28;20243;-68
2023/03/07 01:39:41;;;;;;;53.73;30.63;;;;;;;1.98;100.00;99408.06;4989391;28;20672;-68
2023/03/07 01:42:09;;;;;;;59.73;30.73;;;;;;;1.97;100.00;99399.63;5003435;28;20203;-68
2023/03/07 01:44:57;;;;;;;65.50;33.00;;;;;;;1.94;100.00;99402.09;4993216;28;20240;-68
2023/03/07 01:47:23;;;;;;;59.00;32.27;;;;;;;1.95;100.00;99388.66;4988223;28;20207;-67
2023/03/07 01:49:51;;;;;;;59.43;31.23;;;;;;;1.95;100.00;99386.13;4990345;28;20188;-67
2023/03/07 01:52:21;;;;;;;59.80;32.43;;;;;;;1.92;100.00;99386.03;5006441;28;20701;-67
2023/03/07 01:54:59;;;;;;;57.53;30.67;;;;;;;1.91;100.00;99381.81;4987374;28;20309;-67
2023/03/07 01:57:33;;;;;;;60.87;32.50;;;;;;;1.88;100.00;99375.81;4990152;28;20188;-68
2023/03/07 02:00:04;;;;;;;57.60;31.07;;;;;;;1.88;100.00;99369.09;4985960;28;20206;-67
2023/03/07 02:02:42;;;;;;;56.30;30.77;;;;;;;1.85;100.00;99363.97;5003920;28;20285;-68
2023/03/07 02:05:26;;;;;;;59.30;32.67;;;;;;;1.83;100.00;99363.06;4984797;28;20218;-68
2023/03/07 02:07:54;;;;;;;61.27;32.10;;;;;;;1.77;100.00;99354.44;4985908;28;20281;-68
2023/03/07 02:10:24;;;;;;;62.20;31.77;;;;;;;1.77;100.00;99352.78;4982138;28;20195;-68
2023/03/07 02:12:52;;;;;;;58.93;30.50;;;;;;;1.73;100.00;99350.97;4991316;28;20223;-66
2023/03/07 02:15:17;;;;;;;59.57;31.77;;;;;;;1.71;100.00;99349.22;4985790;28;20282;-66
2023/03/07 02:17:44;;;;;;;66.73;33.33;;;;;;;1.68;100.00;99341.56;4992216;28;20298;-68
2023/03/07 02:20:13;;;;;;;56.90;30.40;;;;;;;1.66;100.00;99341.50;4986410;28;20257;-67
2023/03/07 02:22:40;;;;;;;62.60;31.37;;;;;;;1.63;100.00;99338.91;4985571;28;20253;-68
2023/03/07 02:25:12;;;;;;;59.57;30.90;;;;;;;1.59;100.00;99334.59;4989195;28;20207;-68
2023/03/07 02:27:38;;;;;;;55.33;30.97;;;;;;;1.56;100.00;99326.09;5005529;28;20199;-68
2023/03/07 02:30:06;;;;;;;59.63;31.17;;;;;;;1.55;100.00;99325.22;4987703;28;20262;-67
2023/03/07 02:32:32;;;;;;;58.97;30.53;;;;;;;1.49;100.00;99314.97;4989785;28;20738;-69
2023/03/07 02:34:57;;;;;;;60.03;31.50;;;;;;;1.52;100.00;99312.50;4983708;28;20214;-68
2023/03/07 02:37:33;;;;;;;57.03;30.03;;;;;;;1.50;100.00;99310.75;4991719;28;20636;-68
2023/03/07 02:40:06;;;;;;;57.10;30.00;;;;;;;1.49;100.00;99312.44;4990405;28;20194;-68
2023/03/07 02:42:36;;;;;;;55.57;29.77;;;;;;;1.49;100.00;99296.44;4995208;28;20192;-70
2023/03/07 02:45:12;;;;;;;58.07;29.90;;;;;;;1.50;100.00;99298.13;4985643;28;20192;-66
2023/03/07 02:47:41;;;;;;;54.90;28.57;;;;;;;1.48;100.00;99302.28;5002559;28;20194;-70
2023/03/07 02:50:08;;;;;;;52.97;27.43;;;;;;;1.50;100.00;99301.53;5000943;28;20236;-67
2023/03/07 02:52:37;;;;;;;53.80;28.03;;;;;;;1.48;100.00;99292.22;4992481;28;20212;-67
2023/03/07 02:55:03;;;;;;;56.57;29.53;;;;;;;1.50;100.00;99290.56;4988088;28;20212;-68
2023/03/07 02:57:33;;;;;;;55.17;27.70;;;;;;;1.50;100.00;99290.56;4978461;28;20239;-67
2023/03/07 02:59:59;;;;;;;56.83;28.77;;;;;;;1.50;100.00;99285.53;4984662;28;20238;-68
2023/03/07 03:02:25;;;;;;;57.13;29.47;;;;;;;1.52;100.00;99287.28;4990887;28;20187;-68
2023/03/07 03:04:50;;;;;;;52.23;28.33;;;;;;;1.53;100.00;99283.13;4988486;28;20613;-68
2023/03/07 03:07:16;;;;;;;51.80;28.00;;;;;;;1.55;100.00;99282.34;4992863;28;20262;-70
2023/03/07 03:09:42;;;;;;;52.93;27.40;;;;;;;1.58;100.00;99279.94;4989890;28;20191;-67
2023/03/07 03:12:07;;;;;;;54.63;29.37;;;;;;;1.61;100.00;99271.59;4971069;28;20599;-68
2023/03/07 03:14:34;;;;;;;57.87;27.87;;;;;;;1.64;100.00;99264.09;4987902;28;20584;-68
2023/03/07 03:16:59;;;;;;;51.20;27.13;;;;;;;1.67;100.00;99267.59;4989938;28;20203;-68
2023/03/07 03:19:27;;;;;;;49.97;26.37;;;;;;;1.69;100.00;99255.84;4988736;28;20258;-68
2023/03/07 03:21:52;;;;;;;53.03;27.27;;;;;;;1.74;100.00;99253.47;4988196;28;20578;-67
2023/03/07 03:24:18;;;;;;;54.10;27.30;;;;;;;1.79;100.00;99257.81;5002482;28;20250;-67
2023/03/07 03:26:46;;;;;;;53.30;27.40;;;;;;;1.83;100.00;99258.78;4993601;28;20210;-68
2023/03/07 03:29:12;;;;;;;51.97;26.53;;;;;;;1.88;100.00;99245.47;4972475;28;20191;-69
2023/03/07 03:31:38;;;;;;;52.90;27.73;;;;;;;1.91;100.00;99245.56;4990896;28;20738;-67
2023/03/07 03:34:04;;;;;;;46.17;25.57;;;;;;;1.96;100.00;99246.53;4987522;28;20238;-67
2023/03/07 03:36:30;;;;;;;52.17;26.77;;;;;;;1.99;100.00;99239.06;4975788;28;20299;-66
2023/03/07 03:39:01;;;;;;;51.33;26.17;;;;;;;2.03;100.00;99237.47;4988880;28;20199;-68
2023/03/07 03:41:27;;;;;;;46.27;25.27;;;;;;;2.09;100.00;99240.13;4992032;28;20717;-67
2023/03/07 03:43:53;;;;;;;46.73;25.67;;;;;;;2.13;100.00;99239.41;4992976;28;20294;-67
2023/03/07 03:46:19;;;;;;;49.77;26.27;;;;;;;2.16;100.00;99221.81;4989100;28;20192;-67
2023/03/07 03:48:54;;;;;;;47.90;25.37;;;;;;;2.22;100.00;99220.31;4978809;28;20206;-67
2023/03/07 03:51:23;;;;;;;42.37;23.97;;;;;;;2.26;100.00;99227.13;4989230;28;20585;-68
2023/03/07 03:53:49;;;;;;;40.83;23.67;;;;;;;2.29;100.00;99221.34;4995951;28;20222;-68
2023/03/07 03:56:17;;;;;;;44.23;24.07;;;;;;;2.33;100.00;99220.56;4988369;28;20192;-68
2023/03/07 03:58:45;;;;;;;43.37;24.37;;;;;;;2.36;100.00;99221.53;4990754;28;20198;-70
2023/03/07 04:01:11;;;;;;;40.73;23.03;;;;;;;2.41;100.00;99209.88;4990296;28;20566;-68
2023/03/07 04:03:42;;;;;;;43.87;22.97;;;;;;;2.45;100.00;99210.78;4996193;28;20242;-68
2023/03/07 04:06:17;;;;;;;42.00;23.27;;;;;;;2.52;100.00;99210.13;4985036;28;20232;-67
2023/03/07 04:08:45;;;;;;;42.60;24.30;;;;;;;2.57;100.00;99218.69;4984027;28;20183;-70
2023/03/07 04:11:10;;;;;;;41.67;22.50;;;;;;;2.59;100.00;99210.31;4986367;28;20228;-68
2023/03/07 04:13:36;;;;;;;37.43;21.27;;;;;;;2.61;100.00;99205.28;4994822;28;20211;-68
2023/03/07 04:16:03;;;;;;;42.13;21.97;;;;;;;2.60;100.00;99201.91;4990928;28;20265;-67
2023/03/07 04:18:28;;;;;;;33.47;20.57;;;;;;;2.62;100.00;99192.69;4994884;28;20242;-67
2023/03/07 04:20:54;;;;;;;39.40;21.13;;;;;;;2.64;100.00;99192.72;4990932;28;20195;-67
2023/03/07 04:23:21;;;;;;;38.17;21.23;;;;;;;2.67;100.00;99185.22;4990539;28;20282;-68
2023/03/07 04:25:48;;;;;;;35.60;21.10;;;;;;;2.69;100.00;99183.56;4977524;28;20207;-68
2023/03/07 04:28:17;;;;;;;33.27;19.17;;;;;;;2.73;100.00;99183.69;4994787;28;20278;-68
2023/03/07 04:30:43;;;;;;;36.03;18.93;;;;;;;2.71;100.00;99177.75;4984216;28;20238;-68
2023/03/07 04:33:09;;;;;;;34.27;18.80;;;;;;;2.74;100.00;99164.31;4986661;28;20596;-68
2023/03/07 04:35:35;;;;;;;31.23;18.67;;;;;;;2.75;100.00;99178.69;4991621;28;20222;-67
2023/03/07 04:38:01;;;;;;;29.43;16.83;;;;;;;2.69;100.00;99176.00;4985953;28;20184;-67
2023/03/07 04:40:26;;;;;;;29.00;16.63;;;;;;;2.68;100.00;99161.66;4992285;28;20195;-68
2023/03/07 04:42:52;;;;;;;29.53;16.50;;;;;;;2.71;100.00;99162.59;4989146;28;20198;-68
2023/03/07 04:45:18;;;;;;;27.57;15.77;;;;;;;2.76;100.00;99160.19;4982402;28;20200;-69
2023/03/07 04:47:43;;;;;;;27.67;15.80;;;;;;;2.77;100.00;99151.78;4991093;28;20217;-67
2023/03/07 04:50:09;;;;;;;27.80;15.60;;;;;;;2.76;100.00;99153.44;4977739;28;20246;-70
2023/03/07 04:52:35;;;;;;;29.53;16.37;;;;;;;2.81;100.00;99151.03;4975570;28;20208;-68
2023/03/07 04:55:01;;;;;;;29.03;15.33;;;;;;;2.84;100.00;99159.53;4994175;28;20218;-68
2023/03/07 04:57:26;;;;;;;24.33;14.03;;;;;;;2.91;100.00;99152.94;4973650;28;20199;-68
2023/03/07 04:59:52;;;;;;;28.03;13.80;;;;;;;2.95;100.00;99144.59;4977287;28;20192;-69
2023/03/07 05:02:20;;;;;;;24.53;13.37;;;;;;;2.93;100.00;99149.63;4989445;28;20854;-70
2023/03/07 05:04:45;;;;;;;22.57;13.10;;;;;;;2.95;100.00;99140.38;4996552;28;20310;-66
2023/03/07 05:07:11;;;;;;;20.87;12.90;;;;;;;2.96;100.00;99141.25;4986351;28;20299;-69
2023/03/07 05:09:36;;;;;;;21.43;11.70;;;;;;;3.02;100.00;99143.88;4985388;28;20230;-68
2023/03/07 05:12:03;;;;;;;22.67;12.10;;;;;;;3.07;100.00;99144.84;4985504;28;20234;-66
2023/03/07 05:14:28;;;;;;;20.73;11.37;;;;;;;3.06;100.00;99145.66;4990487;28;20218;-68
2023/03/07 05:16:54;;;;;;;15.87;9.70;;;;;;;3.12;100.00;99146.66;4991394;28;20287;-67
2023/03/07 05:19:19;;;;;;;20.60;10.63;;;;;;;3.11;100.00;99144.94;4995854;28;20248;-67
2023/03/07 05:21:46;;;;;;;17.87;10.00;;;;;;;3.10;100.00;99147.44;4986298;28;20198;-70
2023/03/07 05:24:12;;;;;;;16.67;8.33;;;;;;;3.08;100.00;99134.75;4989150;28;20215;-68
2023/03/07 05:26:37;;;;;;;17.60;8.37;;;;;;;3.07;100.00;99122.97;4992727;28;20207;-69
2023/03/07 05:29:03;;;;;;;16.07;8.20;;;;;;;3.09;100.00;99117.94;4993791;28;20299;-68
2023/03/07 05:31:29;;;;;;;16.80;7.07;;;;;;;3.09;100.00;99120.47;4982365;28;20223;-67
2023/03/07 05:33:55;;;;;;;13.87;7.00;;;;;;;3.04;100.00;99122.88;4983459;28;20211;-67
2023/03/07 05:36:20;;;;;;;11.27;6.07;;;;;;;3.08;100.00;99122.13;5005910;28;20188;-70
2023/03/07 05:38:46;;;;;;;10.60;6.07;;;;;;;3.08;100.00;99123.81;4991849;28;20217;-69
2023/03/07 05:41:11;;;;;;;11.80;6.53;;;;;;;3.11;100.00;99136.50;4990395;28;20878;-67
2023/03/07 05:43:37;;;;;;;15.60;6.30;;;;;;;3.13;100.00;99129.81;4988810;28;20219;-69
2023/03/07 05:46:02;;;;;;;10.80;5.80;;;;;;;3.16;100.00;99125.66;4984108;28;20286;-70
2023/03/07 05:48:28;;;;;;;10.57;5.70;;;;;;;3.15;100.00;99125.63;4985750;28;20195;-70
2023/03/07 05:50:53;;;;;;;12.97;5.53;;;;;;;3.14;100.00;99118.88;4990639;28;20215;-69
2023/03/07 05:53:19;;;;;;;8.13;4.97;;;;;;;3.14;100.00;99117.22;4981358;28;20248;-70
2023/03/07 05:55:44;;;;;;;12.33;4.70;;;;;;;3.14;100.00;99114.69;4974158;28;20581;-69
2023/03/07 05:58:11;;;;;;;10.43;4.60;;;;;;;3.16;100.00;99115.56;5000015;28;20276;-69
2023/03/07 06:00:36;;;;;;;10.23;3.80;;;;;;;3.20;100.00;99107.22;4994831;28;20291;-70
2023/03/07 06:03:03;;;;;;;8.13;3.77;;;;;;;3.22;100.00;99100.50;4986339;28;20212;-70
2023/03/07 06:05:29;;;;;;;8.13;4.07;;;;;;;3.23;100.00;99111.47;4991518;28;20199;-69
2023/03/07 06:07:54;;;;;;;7.47;3.33;;;;;;;3.33;100.00;99115.91;4989543;28;20199;-70
2023/03/07 06:10:20;;;;;;;6.33;3.57;;;;;;;3.35;100.00;99096.56;4989931;28;20224;-70
2023/03/07 06:12:52;;;;;;;9.10;3.60;;;;;;;3.28;100.00;99098.13;4989844;28;20254;-69
2023/03/07 06:15:19;;;;;;;7.37;3.30;;;;;;;3.25;100.00;99113.22;4995209;28;20207;-68
2023/03/07 06:17:46;;;;;;;8.97;3.17;;;;;;;3.25;100.00;99099.72;4970206;28;20196;-69
2023/03/07 06:20:12;;;;;;;8.30;3.20;;;;;;;3.29;100.00;99104.00;4966536;28;20192;-69
2023/03/07 06:22:38;;;;;;;7.87;3.50;;;;;;;3.26;100.00;99083.75;4972738;28;20577;-70
2023/03/07 06:25:05;;;;;;;8.77;4.03;;;;;;;3.29;100.00;99096.44;4994306;28;20586;-69
2023/03/07 06:27:35;;;;;;;7.13;3.10;;;;;;;3.30;100.00;99088.88;4989919;28;20207;-69
2023/03/07 06:30:01;;;;;;;6.47;2.70;;;;;;;3.35;100.00;99097.41;4979914;28;20200;-69
2023/03/07 06:32:30;;;;;;;9.33;3.43;;;;;;;3.37;100.00;99084.78;4986850;28;20693;-69
2023/03/07 06:34:56;;;;;;;7.57;2.90;;;;;;;3.36;100.00;99083.91;4988455;28;20218;-69
2023/03/07 06:37:22;;;;;;;8.80;3.17;;;;;;;3.37;100.00;99080.59;4990826;28;20196;-69
2023/03/07 06:39:48;;;;;;;6.50;3.00;;;;;;;3.43;100.00;99083.22;4988516;28;20203;-69
2023/03/07 06:42:14;;;;;;;9.53;3.00;;;;;;;3.46;100.00;99092.56;4984506;28;20311;-69
2023/03/07 06:44:39;;;;;;;8.53;3.00;;;;;;;3.51;100.00;99090.97;4989517;28;20222;-69
2023/03/07 06:47:05;;;;;;;9.27;2.80;;;;;;;3.52;100.00;99096.06;4989762;28;20207;-69
2023/03/07 06:49:31;;;;;;;10.10;2.67;;;;;;;3.54;100.00;99101.97;4987918;28;20298;-69
2023/03/07 06:51:56;;;;;;;8.30;2.60;;;;;;;3.59;100.00;99094.50;4988291;28;20224;-69
2023/03/07 06:54:22;;;;;;;8.63;2.40;;;;;;;3.61;100.00;99108.88;4986265;28;20212;-69
2023/03/07 06:56:47;;;;;;;5.80;2.40;;;;;;;3.62;100.00;99108.03;4989810;28;20194;-69
2023/03/07 06:59:18;;;;;;;5.73;2.10;;;;;;;3.61;100.00;99100.41;4988735;28;20198;-69
2023/03/07 07:01:44;;;;;;;9.43;2.20;;;;;;;3.63;100.00;99097.09;4985990;28;20192;-69
2023/03/07 07:04:10;;;;;;;6.80;2.00;;;;;;;3.65;100.00;99102.19;4986207;28;20374;-69
2023/03/07 07:06:36;;;;;;;9.17;2.20;;;;;;;3.67;100.00;99101.38;4994941;28;20357;-69
2023/03/07 07:09:03;;;;;;;5.27;1.87;;;;;;;3.69;100.00;99097.19;4987041;28;20709;-69
2023/03/07 07:11:32;;;;;;;9.33;2.37;;;;;;;3.73;100.00;99108.25;4991868;28;20219;-69
2023/03/07 07:13:58;;;;;;;9.93;2.00;;;;;;;3.75;100.00;99101.50;4985369;28;20366;-69
2023/03/07 07:16:24;;;;;;;4.40;1.57;;;;;;;3.78;100.00;99104.94;4992766;28;20721;-70
2023/03/07 07:18:50;;;;;;;5.63;1.50;;;;;;;3.79;100.00;99095.69;4994371;28;20223;-70
2023/03/07 07:21:17;;;;;;;6.00;1.60;;;;;;;3.84;100.00;99106.75;4987493;28;20283;-70
2023/03/07 07:23:42;;;;;;;8.37;1.60;;;;;;;3.92;100.00;99105.22;4991541;28;20298;-70
2023/03/07 07:26:08;;;;;;;6.70;1.30;;;;;;;3.98;100.00;99111.22;4988011;28;20825;-70
2023/03/07 07:28:34;;;;;;;7.80;2.33;;;;;;;4.04;100.00;99102.84;4988282;28;20203;-70
2023/03/07 07:31:00;;;;;;;8.23;1.63;;;;;;;4.03;100.00;99101.16;4988201;28;20604;-70
2023/03/07 07:33:28;;;;;;;6.30;1.40;;;;;;;4.03;100.00;99102.03;4991270;28;20218;-69
2023/03/07 07:35:53;;;;;;;7.23;1.70;;;;;;;4.07;100.00;99113.06;4992399;28;20214;-67
2023/03/07 07:38:18;;;;;;;7.33;1.50;;;;;;;4.10;100.00;99106.34;4990288;28;20266;-67
2023/03/07 07:40:44;;;;;;;3.67;0.90;;;;;;;4.17;100.00;99110.69;4995152;28;20660;-70
2023/03/07 07:43:15;;;;;;;6.33;1.30;;;;;;;4.18;100.00;99112.41;4991890;28;20570;-69
2023/03/07 07:46:02;;;;;;;5.00;1.40;;;;;;;4.24;100.00;99127.69;4991622;28;20236;-70
2023/03/07 07:48:28;;;;;;;8.57;1.37;;;;;;;4.46;100.00;99111.16;4994531;28;20220;-69
2023/03/07 07:50:53;;;;;;;6.97;1.60;;;;;;;4.40;100.00;99108.53;4988500;28;20668;-69
2023/03/07 07:53:19;;;;;;;10.13;1.50;;;;;;;4.51;100.00;99097.72;4986974;28;20266;-70
2023/03/07 07:55:47;;;;;;;5.77;1.23;;;;;;;4.64;100.00;99103.81;4992458;28;20280;-70
2023/03/07 07:58:13;;;;;;;9.93;1.57;;;;;;;4.72;100.00;99110.72;4991804;28;20837;-70
2023/03/07 08:00:39;;;;;;;4.90;1.03;;;;;;;4.74;100.00;99101.44;4989119;28;20199;-70
2023/03/07 08:03:04;;;;;;;5.97;1.67;;;;;;;4.75;100.00;99074.41;4991272;28;20274;-70
2023/03/07 08:05:31;;;;;;;6.80;1.30;;;;;;;4.98;100.00;99093.31;4989288;28;20317;-70
2023/03/07 08:07:56;;;;;;;8.63;1.40;;;;;;;4.97;100.00;99099.22;4996791;28;20196;-67
2023/03/07 08:10:22;;;;;;;7.43;1.33;;;;;;;5.00;100.00;99111.94;4987865;28;20195;-70
2023/03/07 08:12:52;;;;;;;6.37;1.57;;;;;;;4.99;100.00;99108.56;4998002;28;20219;-69
2023/03/07 08:15:20;;;;;;;7.97;1.63;;;;;;;5.01;100.00;99111.94;4984405;28;20662;-69
2023/03/07 08:17:47;;;;;;;7.20;1.17;;;;;;;4.89;100.00;99124.50;4990056;28;20192;-67
2023/03/07 08:20:13;;;;;;;7.80;1.50;;;;;;;4.82;100.00;99120.16;4986636;28;20204;-69
2023/03/07 08:22:39;;;;;;;7.73;1.40;;;;;;;4.97;100.00;99122.06;4993234;28;20722;-69
2023/03/07 08:25:06;;;;;;;7.33;1.40;;;;;;;4.97;100.00;99117.81;4986003;28;20272;-70
2023/03/07 08:27:32;;;;;;;7.23;1.40;;;;;;;4.86;100.00;99126.97;4989392;28;20864;-69
2023/03/07 08:29:58;;;;;;;5.40;1.20;;;;;;;4.86;100.00;99136.25;4989506;28;20200;-70
2023/03/07 08:32:23;;;;;;;4.27;1.43;;;;;;;4.86;100.00;99142.19;4988142;28;20230;-70
2023/03/07 08:34:49;;;;;;;9.00;1.50;;;;;;;4.97;100.00;99150.78;4992001;28;20223;-69
2023/03/07 08:37:14;;;;;;;5.90;1.47;;;;;;;4.92;100.00;99143.97;4987543;28;20222;-69
2023/03/07 08:39:40;;;;;;;11.20;1.87;;;;;;;4.95;100.00;99136.38;4990466;28;20198;-70
2023/03/07 08:42:05;;;;;;;8.80;1.50;;;;;;;4.78;100.00;99132.78;4986959;28;20196;-70
2023/03/07 08:44:31;;;;;;;9.43;1.90;;;;;;;4.75;100.00;99125.13;4990646;28;20255;-69
2023/03/07 08:46:56;;;;;;;11.60;1.40;;;;;;;4.82;100.00;99142.09;4988330;28;20627;-69
2023/03/07 08:49:22;;;;;;;9.63;1.70;;;;;;;4.67;100.00;99144.41;4987339;28;20595;-69
2023/03/07 08:51:47;;;;;;;8.40;1.40;;;;;;;4.70;100.00;99144.47;4973220;28;20223;-69
2023/03/07 08:54:13;;;;;;;9.33;1.37;;;;;;;4.76;100.00;99159.75;4984502;28;20227;-69
2023/03/07 08:56:38;;;;;;;5.63;1.30;;;;;;;4.82;100.00;99165.78;4981927;28;20338;-70
2023/03/07 08:59:04;;;;;;;6.97;1.33;;;;;;;4.82;100.00;99148.03;4987161;28;20191;-70
2023/03/07 09:01:30;;;;;;;10.60;1.50;;;;;;;4.85;100.00;99144.69;4982874;28;20653;-69
2023/03/07 09:03:55;;;;;;;5.73;1.40;;;;;;;4.77;100.00;99142.06;4988244;28;20242;-69
2023/03/07 09:06:21;;;;;;;8.23;1.77;;;;;;;4.80;100.00;99148.84;4981906;28;20200;-70
2023/03/07 09:08:47;;;;;;;10.57;1.37;;;;;;;4.87;100.00;99168.38;4991101;28;20230;-69
2023/03/07 09:11:14;;;;;;;7.63;1.60;;;;;;;4.89;100.00;99159.13;4977728;28;20231;-69
2023/03/07 09:13:40;;;;;;;7.37;1.40;;;;;;;5.00;100.00;99165.19;4988431;28;20245;-70
2023/03/07 09:16:06;;;;;;;5.67;1.33;;;;;;;5.04;100.00;99177.09;4986510;28;20207;-71
2023/03/07 09:18:33;;;;;;;10.30;2.10;;;;;;;5.00;100.00;99162.66;4985495;28;20263;-69
2023/03/07 09:21:05;;;;;;;11.07;2.10;;;;;;;5.05;100.00;99146.69;4983551;28;20211;-69
2023/03/07 09:23:30;;;;;;;7.27;1.60;;;;;;;5.13;100.00;99164.53;4987066;28;20270;-69
2023/03/07 09:26:05;;;;;;;8.23;1.73;;;;;;;4.99;100.00;99140.66;4982261;28;20199;-69
2023/03/07 09:28:31;;;;;;;10.33;1.57;;;;;;;5.06;100.00;99153.44;4986493;28;20188;-68
2023/03/07 09:30:56;;;;;;;9.83;1.70;;;;;;;5.01;100.00;99160.13;4982209;28;20227;-70
2023/03/07 09:33:22;;;;;;;9.37;1.83;;;;;;;4.96;100.00;99164.28;4971895;28;20735;-69
2023/03/07 09:35:47;;;;;;;8.97;1.77;;;;;;;5.09;100.00;99173.78;4991704;28;20602;-69
2023/03/07 09:38:13;;;;;;;9.27;1.90;;;;;;;5.14;100.00;99136.66;4986313;28;20211;-69
2023/03/07 09:40:38;;;;;;;7.07;1.70;;;;;;;5.22;100.00;99164.66;4987991;28;20227;-69
2023/03/07 09:43:20;;;;;;;8.13;1.70;;;;;;;5.36;100.00;99169.09;4977778;28;20219;-69
2023/03/07 09:46:20;;;;;;;9.03;1.70;;;;;;;5.54;100.00;99121.09;4989082;28;20540;-69
2023/03/07 09:49:01;;;;;;;8.20;1.57;;;;;;;6.17;100.00;99053.13;4987768;28;20203;-70
2023/03/07 09:51:36;;;;;;;7.67;1.33;;;;;;;6.19;100.00;99059.09;4981071;28;20301;-70
2023/03/07 09:54:07;;;;;;;10.07;1.53;;;;;;;5.87;100.00;99052.91;4985918;28;20225;-70
2023/03/07 09:56:45;;;;;;;11.00;1.50;;;;;;;5.99;100.00;99070.75;4982912;28;20610;-70
2023/03/07 09:59:27;;;;;;;6.30;1.43;;;;;;;6.34;100.00;99056.66;4983828;28;20187;-70
2023/03/07 10:02:24;;;;;;;4.73;1.17;;;;;;;6.51;100.00;99013.56;4984335;28;20257;-70
2023/03/07 10:05:11;;;;;;;8.37;1.47;;;;;;;7.66;100.00;98908.69;4983466;28;20235;-70
2023/03/07 10:07:36;;;;;;;9.50;1.70;;;;;;;8.00;100.00;98745.56;4988624;28;20218;-71
2023/03/07 10:10:13;;;;;;;5.40;1.57;;;;;;;9.31;100.00;98611.88;4990242;28;20262;-70
2023/03/07 10:13:18;;;;;;;7.17;1.80;;;;;;;9.20;100.00;98603.47;4984126;28;20227;-68
2023/03/07 10:15:55;;;;;;;8.27;1.70;;;;;;;7.59;100.00;98630.25;4988355;28;20917;-70
2023/03/07 10:18:36;;;;;;;7.33;2.03;;;;;;;6.81;100.00;98831.44;4979549;28;20203;-70
2023/03/07 10:21:19;;;;;;;6.77;1.10;;;;;;;5.88;100.00;98980.94;4987419;28;20584;-70
2023/03/07 10:24:04;;;;;;;7.83;1.10;;;;;;;5.62;100.00;99105.94;4985047;28;20739;-70
2023/03/07 10:26:39;;;;;;;7.93;1.60;;;;;;;4.91;100.00;99241.97;4985395;28;20239;-70
2023/03/07 10:29:14;;;;;;;1.80;0.40;;;;;;;4.28;100.00;99349.81;4984990;28;20199;-70
2023/03/07 10:31:44;;;;;;;2.97;0.63;;;;;;;4.19;100.00;99395.22;4986742;28;20691;-70
2023/03/07 10:34:16;;;;;;;3.17;0.80;;;;;;;4.01;100.00;99336.59;4972383;28;20231;-69
2023/03/07 10:36:45;;;;;;;1.20;0.50;;;;;;;3.99;100.00;99262.28;4985606;28;20248;-70
2023/03/07 10:39:29;;;;;;;3.20;1.03;;;;;;;3.78;100.00;99241.59;4986217;28;20250;-70
2023/03/07 10:41:55;;;;;;;4.33;1.00;;;;;;;3.71;100.00;99242.31;4987207;28;20195;-70
2023/03/07 10:44:21;;;;;;;8.97;1.27;;;;;;;3.59;100.00;99274.13;4986219;28;20219;-69
2023/03/07 10:46:53;;;;;;;6.10;1.87;;;;;;;3.18;100.00;99268.13;4984230;28;20220;-69
2023/03/07 10:49:24;;;;;;;2.33;0.80;;;;;;;3.12;100.00;99269.69;4979175;28;20201;-70
2023/03/07 10:52:14;;;;;;;1.67;0.73;;;;;;;2.85;100.00;99274.09;4978977;28;20226;-70
2023/03/07 10:54:39;;;;;;;5.07;0.80;;;;;;;2.85;100.00;99269.03;4985244;28;20214;-70
2023/03/07 10:57:08;;;;;;;2.60;0.90;;;;;;;2.89;100.00;99266.63;4987955;28;20595;-70
2023/03/07 10:59:36;;;;;;;4.67;0.83;;;;;;;3.04;100.00;99256.03;4989044;28;20692;-70
2023/03/07 11:02:17;;;;;;;3.33;0.73;;;;;;;3.67;100.00;99249.81;4988077;28;20195;-70
2023/03/07 11:04:45;;;;;;;2.83;0.70;;;;;;;4.54;100.00;99236.28;4988325;28;20762;-70
2023/03/07 11:07:33;;;;;;;3.77;1.00;;;;;;;6.66;100.00;99219.59;4985047;28;20558;-70
2023/03/07 11:10:00;;;;;;;2.07;0.73;;;;;;;8.34;100.00;99086.22;4986325;28;20270;-69
2023/03/07 11:12:28;;;;;;;2.33;0.67;;;;;;;10.04;100.00;98864.00;4984988;28;20870;-67
2023/03/07 11:14:57;;;;;;;5.60;1.00;;;;;;;12.94;100.00;98566.34;4986098;28;21010;-68
2023/03/07 11:17:45;;;;;;;1.00;0.60;;;;;;;12.58;89.98;98459.50;4988015;28;20192;-68
2023/03/07 11:20:46;;;;;;;4.70;0.93;;;;;;;11.24;94.41;98485.03;4987640;28;20232;-68
2023/03/07 11:23:24;;;;;;;4.30;1.10;;;;;;;11.60;91.25;98481.66;4978667;28;20822;-68
2023/03/07 11:25:52;;;;;;;7.20;1.37;;;;;;;11.37;96.87;98560.72;4989355;28;20192;-68
2023/03/07 11:28:35;;;;;;;5.37;1.20;;;;;;;10.63;98.44;98576.66;4984881;28;20330;-68
2023/03/07 11:31:07;;;;;;;5.37;1.50;;;;;;;7.53;100.00;98872.19;4988761;28;20309;-70